createdAt,value
2023-02-27T00:01:38.940Z,18.43
2023-02-27T00:04:41.065Z,14.73
2023-02-27T00:07:42.921Z,15.93
2023-02-27T00:10:44.678Z,13.60
2023-02-27T00:13:46.395Z,19.47
2023-02-27T00:16:48.102Z,25.07
2023-02-27T00:19:49.718Z,24.87
2023-02-27T00:22:52.024Z,20.50
2023-02-27T00:25:54.957Z,20.80
2023-02-27T00:28:56.605Z,18.00
2023-02-27T00:31:58.317Z,18.87
2023-02-27T00:35:00.106Z,18.20
2023-02-27T00:38:02.344Z,20.37
2023-02-27T00:41:03.976Z,20.73
2023-02-27T00:44:05.624Z,20.07
2023-02-27T00:47:07.325Z,25.53
2023-02-27T00:50:09.413Z,16.17
2023-02-27T00:53:11.221Z,17.37
2023-02-27T00:56:12.826Z,22.63
2023-02-27T00:59:14.684Z,23.87
2023-02-27T01:02:16.383Z,16.93
2023-02-27T01:05:18.838Z,19.53
2023-02-27T01:08:20.823Z,18.53
2023-02-27T01:11:22.511Z,21.47
2023-02-27T01:14:24.152Z,21.77
2023-02-27T01:17:25.849Z,22.10
2023-02-27T01:20:27.513Z,16.63
2023-02-27T01:23:29.304Z,18.03
2023-02-27T01:26:30.999Z,22.07
2023-02-27T01:29:32.646Z,21.63
2023-02-27T01:32:36.595Z,20.03
2023-02-27T01:35:38.921Z,17.70
2023-02-27T01:38:40.741Z,18.50
2023-02-27T01:41:42.515Z,20.83
2023-02-27T01:45:02.966Z,19.17
2023-02-27T01:48:09.350Z,18.03
2023-02-27T01:51:13.856Z,17.80
2023-02-27T01:54:19.432Z,20.40
2023-02-27T01:57:21.106Z,19.97
2023-02-27T02:00:23.203Z,18.43
2023-02-27T02:03:38.089Z,18.40
2023-02-27T02:06:42.349Z,16.10
2023-02-27T02:09:49.128Z,18.83
2023-02-27T02:12:50.727Z,15.77
2023-02-27T02:16:12.645Z,14.83
2023-02-27T02:19:23.505Z,15.73
2023-02-27T02:22:43.986Z,14.00
2023-02-27T02:25:48.464Z,17.87
2023-02-27T02:28:50.283Z,14.27
2023-02-27T02:32:10.823Z,14.33
2023-02-27T02:35:15.214Z,13.93
2023-02-27T02:38:29.045Z,11.87
2023-02-27T02:41:33.641Z,19.93
2023-02-27T02:44:35.615Z,14.97
2023-02-27T02:47:37.302Z,16.23
2023-02-27T02:50:38.928Z,18.50
2023-02-27T02:53:43.589Z,11.97
2023-02-27T02:56:48.340Z,18.33
2023-02-27T03:00:08.299Z,12.90
2023-02-27T03:03:12.723Z,14.43
2023-02-27T03:06:17.244Z,12.63
2023-02-27T03:09:34.379Z,13.27
2023-02-27T03:12:37.079Z,16.03
2023-02-27T03:15:44.972Z,22.80
2023-02-27T03:18:54.111Z,15.57
2023-02-27T03:21:55.801Z,13.67
2023-02-27T03:24:59.106Z,16.13
2023-02-27T03:28:02.663Z,24.37
2023-02-27T03:31:17.983Z,19.07
2023-02-27T03:34:29.499Z,18.87
2023-02-27T03:37:44.714Z,19.37
2023-02-27T03:40:56.233Z,18.50
2023-02-27T03:44:09.145Z,20.87
2023-02-27T03:47:10.767Z,19.10
2023-02-27T03:50:13.069Z,21.63
2023-02-27T03:53:36.454Z,19.63
2023-02-27T03:56:44.243Z,21.93
2023-02-27T03:59:46.014Z,17.63
2023-02-27T04:02:50.949Z,18.43
2023-02-27T04:05:56.449Z,29.03
2023-02-27T04:09:04.436Z,17.50
2023-02-27T04:12:30.569Z,27.53
2023-02-27T04:15:43.369Z,21.03
2023-02-27T04:18:47.865Z,25.43
2023-02-27T04:22:05.271Z,23.23
2023-02-27T04:25:36.101Z,21.03
2023-02-27T04:28:37.832Z,26.53
2023-02-27T04:31:47.262Z,23.43
2023-02-27T04:34:51.055Z,24.43
2023-02-27T04:37:57.078Z,26.47
2023-02-27T04:41:02.063Z,21.80
2023-02-27T04:44:05.555Z,25.37
2023-02-27T04:47:08.673Z,12.83
2023-02-27T04:50:12.781Z,23.60
2023-02-27T04:53:23.927Z,20.30
2023-02-27T04:56:35.847Z,30.77
2023-02-27T04:59:42.726Z,19.47
2023-02-27T05:02:47.566Z,21.07
2023-02-27T05:05:50.404Z,22.40
2023-02-27T05:08:54.802Z,19.63
2023-02-27T05:12:01.690Z,21.03
2023-02-27T05:15:10.044Z,23.93
2023-02-27T05:18:14.011Z,23.30
2023-02-27T05:21:18.710Z,26.73
2023-02-27T05:24:20.555Z,21.80
2023-02-27T05:27:35.400Z,36.80
2023-02-27T05:30:57.305Z,28.47
2023-02-27T05:34:02.196Z,25.00
2023-02-27T05:37:07.765Z,27.37
2023-02-27T05:40:10.985Z,32.40
2023-02-27T05:43:35.846Z,26.47
2023-02-27T05:46:39.293Z,25.90
2023-02-27T05:49:45.304Z,26.50
2023-02-27T05:52:48.463Z,33.60
2023-02-27T05:55:52.304Z,34.77
2023-02-27T05:59:02.721Z,29.87
2023-02-27T06:02:04.712Z,27.93
2023-02-27T06:05:06.901Z,28.23
2023-02-27T06:08:08.971Z,30.10
2023-02-27T06:11:10.934Z,30.13
2023-02-27T06:14:12.583Z,24.07
2023-02-27T06:17:14.512Z,27.50
2023-02-27T06:20:16.213Z,33.37
2023-02-27T06:23:17.944Z,62.63
2023-02-27T06:26:19.559Z,30.63
2023-02-27T06:29:21.215Z,30.93
2023-02-27T06:32:25.414Z,26.93
2023-02-27T06:35:27.366Z,40.63
2023-02-27T06:38:28.978Z,41.93
2023-02-27T06:41:30.659Z,45.73
2023-02-27T06:44:32.276Z,43.10
2023-02-27T06:47:34.271Z,36.77
2023-02-27T06:50:35.969Z,42.77
2023-02-27T06:53:37.581Z,39.40
2023-02-27T06:56:39.328Z,32.10
2023-02-27T06:59:42.087Z,28.33
2023-02-27T07:02:43.688Z,37.73
2023-02-27T07:05:45.379Z,24.27
2023-02-27T07:09:00.853Z,27.17
2023-02-27T07:12:08.227Z,22.70
2023-02-27T07:15:10.260Z,29.53
2023-02-27T07:18:11.881Z,25.13
2023-02-27T07:21:15.331Z,26.70
2023-02-27T07:24:17.203Z,27.83
2023-02-27T07:27:18.803Z,23.70
2023-02-27T07:30:20.611Z,25.77
2023-02-27T07:33:22.416Z,29.37
2023-02-27T07:36:24.685Z,35.03
2023-02-27T07:39:26.451Z,36.20
2023-02-27T07:42:28.029Z,33.23
2023-02-27T07:45:29.923Z,33.40
2023-02-27T07:48:32.804Z,122.87
2023-02-27T07:51:34.434Z,193.40
2023-02-27T07:54:37.626Z,65.37
2023-02-27T07:57:39.636Z,31.23
2023-02-27T08:00:41.364Z,29.90
2023-02-27T08:03:43.013Z,158.93
2023-02-27T08:06:44.921Z,90.77
2023-02-27T08:09:46.522Z,24.97
2023-02-27T08:12:48.136Z,24.53
2023-02-27T08:15:49.890Z,24.17
2023-02-27T08:18:51.599Z,22.20
2023-02-27T08:21:53.288Z,23.73
2023-02-27T08:24:54.893Z,42.37
2023-02-27T08:27:56.735Z,24.53
2023-02-27T08:30:58.465Z,21.50
2023-02-27T08:34:09.342Z,24.43
2023-02-27T08:37:12.064Z,20.50
2023-02-27T08:40:13.722Z,20.67
2023-02-27T08:43:15.329Z,24.27
2023-02-27T08:46:17.055Z,20.57
2023-02-27T08:49:21.466Z,19.73
2023-02-27T08:52:25.012Z,25.20
2023-02-27T08:55:26.801Z,27.13
2023-02-27T08:58:28.756Z,23.30
2023-02-27T09:01:34.546Z,25.67
2023-02-27T09:04:36.279Z,25.23
2023-02-27T09:07:38.120Z,38.40
2023-02-27T09:10:39.854Z,60.93
2023-02-27T09:13:41.418Z,42.63
2023-02-27T09:16:43.133Z,41.17
2023-02-27T09:19:44.755Z,34.47
2023-02-27T09:22:46.334Z,33.03
2023-02-27T09:25:47.957Z,51.67
2023-02-27T09:28:49.721Z,206.33
2023-02-27T09:31:52.047Z,47.20
2023-02-27T09:34:53.760Z,37.37
2023-02-27T09:37:57.470Z,95.50
2023-02-27T09:40:59.585Z,40.20
2023-02-27T09:44:01.742Z,40.40
2023-02-27T09:47:04.934Z,39.33
2023-02-27T09:50:06.814Z,38.60
2023-02-27T09:53:13.945Z,47.57
2023-02-27T09:56:28.127Z,50.87
2023-02-27T09:59:36.294Z,60.50
2023-02-27T10:02:44.370Z,72.87
2023-02-27T10:06:07.054Z,201.33
2023-02-27T10:09:13.981Z,55.33
2023-02-27T10:12:37.090Z,55.13
2023-02-27T10:15:43.454Z,62.00
2023-02-27T10:18:49.324Z,41.63
2023-02-27T10:21:51.981Z,49.23
2023-02-27T10:25:18.085Z,33.97
2023-02-27T10:28:27.255Z,41.00
2023-02-27T10:31:31.530Z,41.63
2023-02-27T10:34:34.224Z,40.10
2023-02-27T10:37:36.761Z,33.33
2023-02-27T10:40:39.544Z,36.23
2023-02-27T10:43:41.589Z,39.80
2023-02-27T10:46:43.359Z,44.23
2023-02-27T10:49:45.127Z,49.93
2023-02-27T10:52:50.924Z,50.00
2023-02-27T10:56:06.307Z,54.93
2023-02-27T10:59:17.356Z,45.07
2023-02-27T11:02:21.378Z,38.67
2023-02-27T11:05:29.158Z,43.57
2023-02-27T11:08:31.519Z,53.20
2023-02-27T11:11:33.274Z,42.80
2023-02-27T11:14:34.972Z,39.37
2023-02-27T11:17:47.228Z,35.67
2023-02-27T11:20:50.901Z,32.77
2023-02-27T11:24:15.580Z,37.37
2023-02-27T11:27:26.823Z,52.93
2023-02-27T11:30:29.785Z,38.27
2023-02-27T11:33:53.771Z,32.53
2023-02-27T11:36:57.731Z,38.07
2023-02-27T11:40:02.156Z,43.30
2023-02-27T11:43:05.716Z,39.80
2023-02-27T11:46:32.914Z,40.47
2023-02-27T11:49:46.671Z,52.50
2023-02-27T11:52:50.827Z,45.80
2023-02-27T11:55:54.705Z,43.67
2023-02-27T11:59:12.798Z,39.67
2023-02-27T12:02:17.138Z,34.97
2023-02-27T12:05:18.750Z,46.93
2023-02-27T12:08:29.402Z,40.27
2023-02-27T12:11:44.461Z,44.03
2023-02-27T12:14:50.459Z,53.97
2023-02-27T12:17:53.317Z,108.43
2023-02-27T12:20:54.999Z,52.97
2023-02-27T12:24:09.096Z,41.67
2023-02-27T12:27:16.543Z,35.80
2023-02-27T12:30:20.954Z,34.50
2023-02-27T12:33:48.934Z,42.77
2023-02-27T12:36:51.828Z,34.80
2023-02-27T12:39:55.872Z,33.33
2023-02-27T12:43:06.561Z,35.83
2023-02-27T12:46:23.117Z,41.30
2023-02-27T12:49:39.438Z,47.33
2023-02-27T12:52:44.105Z,45.53
2023-02-27T12:55:48.868Z,36.07
2023-02-27T12:58:58.633Z,48.20
2023-02-27T13:02:14.887Z,65.13
2023-02-27T13:05:32.486Z,47.40
2023-02-27T13:08:43.169Z,41.27
2023-02-27T13:11:58.218Z,41.73
2023-02-27T13:15:04.069Z,39.47
2023-02-27T13:18:05.621Z,43.40
2023-02-27T13:21:07.243Z,33.10
2023-02-27T13:24:11.970Z,34.90
2023-02-27T13:27:22.967Z,160.10
2023-02-27T13:30:27.534Z,70.47
2023-02-27T13:33:49.393Z,41.20
2023-02-27T13:36:52.495Z,56.27
2023-02-27T13:40:00.044Z,38.40
2023-02-27T13:43:06.474Z,31.40
2023-02-27T13:46:24.542Z,33.50
2023-02-27T13:49:29.724Z,32.23
2023-02-27T13:52:35.367Z,42.43
2023-02-27T13:55:37.156Z,24.57
2023-02-27T13:58:38.937Z,35.70
2023-02-27T14:01:41.115Z,45.47
2023-02-27T14:04:43.012Z,60.17
2023-02-27T14:07:50.537Z,44.27
2023-02-27T14:10:52.224Z,41.20
2023-02-27T14:13:57.715Z,23.07
2023-02-27T14:16:59.461Z,26.67
2023-02-27T14:20:01.235Z,29.77
2023-02-27T14:23:15.158Z,33.40
2023-02-27T14:26:19.487Z,31.43
2023-02-27T14:29:24.020Z,34.20
2023-02-27T14:32:27.336Z,33.63
2023-02-27T14:35:30.193Z,23.43
2023-02-27T14:38:33.647Z,39.33
2023-02-27T14:41:35.252Z,94.47
2023-02-27T14:44:43.159Z,77.57
2023-02-27T14:47:45.786Z,47.33
2023-02-27T14:50:53.546Z,54.90
2023-02-27T14:54:06.278Z,52.20
2023-02-27T14:57:14.449Z,44.67
2023-02-27T15:00:34.867Z,45.67
2023-02-27T15:03:42.055Z,35.83
2023-02-27T15:06:45.916Z,40.50
2023-02-27T15:09:49.213Z,51.87
2023-02-27T15:12:52.373Z,36.30
2023-02-27T15:16:16.691Z,37.57
2023-02-27T15:19:23.371Z,39.03
2023-02-27T15:22:39.080Z,36.47
2023-02-27T15:25:41.637Z,58.83
2023-02-27T15:28:43.768Z,35.50
2023-02-27T15:31:46.016Z,42.10
2023-02-27T15:34:47.792Z,36.83
2023-02-27T15:37:53.902Z,31.17
2023-02-27T15:40:58.761Z,36.50
2023-02-27T15:44:01.625Z,67.97
2023-02-27T15:47:03.568Z,48.63
2023-02-27T15:50:07.901Z,44.53
2023-02-27T15:53:12.298Z,54.00
2023-02-27T15:56:14.795Z,52.23
2023-02-27T15:59:17.420Z,56.00
2023-02-27T16:02:30.071Z,42.97
2023-02-27T16:05:36.476Z,59.47
2023-02-27T16:08:43.132Z,63.53
2023-02-27T16:11:44.821Z,69.60
2023-02-27T16:14:46.635Z,76.67
2023-02-27T16:18:08.632Z,58.43
2023-02-27T16:21:13.480Z,76.93
2023-02-27T16:24:19.962Z,120.07
2023-02-27T16:27:26.136Z,74.90
2023-02-27T16:30:28.661Z,97.60
2023-02-27T16:33:32.760Z,95.60
2023-02-27T16:36:34.477Z,100.33
2023-02-27T16:39:36.192Z,104.00
2023-02-27T16:42:37.809Z,75.87
2023-02-27T16:45:53.420Z,69.37
2023-02-27T16:49:04.561Z,85.17
2023-02-27T16:52:12.351Z,77.73
2023-02-27T16:55:14.064Z,61.53
2023-02-27T16:58:16.650Z,60.67
2023-02-27T17:01:18.487Z,63.93
2023-02-27T17:04:25.967Z,68.03
2023-02-27T17:07:27.949Z,76.77
2023-02-27T17:10:29.688Z,76.50
2023-02-27T17:13:32.441Z,90.23
2023-02-27T17:16:34.102Z,82.77
2023-02-27T17:19:35.767Z,81.10
2023-02-27T17:22:38.428Z,75.63
2023-02-27T17:25:40.683Z,57.00
2023-02-27T17:28:42.420Z,90.63
2023-02-27T17:31:45.033Z,81.83
2023-02-27T17:34:46.742Z,102.27
2023-02-27T17:37:48.378Z,96.43
2023-02-27T17:40:50.004Z,77.77
2023-02-27T17:43:52.756Z,73.70
2023-02-27T17:46:54.421Z,143.13
2023-02-27T17:49:56.134Z,110.50
2023-02-27T17:52:57.733Z,84.60
2023-02-27T17:55:59.404Z,97.47
2023-02-27T17:59:01.173Z,70.53
2023-02-27T18:02:02.904Z,75.37
2023-02-27T18:05:04.826Z,75.33
2023-02-27T18:08:06.576Z,81.40
2023-02-27T18:11:12.046Z,109.20
2023-02-27T18:14:13.981Z,78.73
2023-02-27T18:17:15.614Z,76.77
2023-02-27T18:20:17.308Z,83.10
2023-02-27T18:23:19.007Z,72.03
2023-02-27T18:26:29.971Z,82.23
2023-02-27T18:29:32.567Z,74.70
2023-02-27T18:32:34.313Z,74.70
2023-02-27T18:35:36.191Z,72.30
2023-02-27T18:38:37.860Z,51.07
2023-02-27T18:41:39.612Z,48.53
2023-02-27T18:44:43.602Z,48.77
2023-02-27T18:47:45.482Z,37.43
2023-02-27T18:50:47.181Z,31.80
2023-02-27T18:53:49.506Z,38.47
2023-02-27T18:56:51.909Z,36.80
2023-02-27T18:59:53.694Z,32.00
2023-02-27T19:02:55.417Z,30.60
2023-02-27T19:05:57.794Z,29.97
2023-02-27T19:08:59.742Z,28.63
2023-02-27T19:12:01.495Z,37.87
2023-02-27T19:15:03.719Z,46.17
2023-02-27T19:18:06.571Z,39.73
2023-02-27T19:21:08.264Z,40.83
2023-02-27T19:24:13.528Z,39.17
2023-02-27T19:27:17.153Z,35.50
2023-02-27T19:30:18.849Z,34.97
2023-02-27T19:33:20.452Z,49.97
2023-02-27T19:36:22.687Z,38.33
2023-02-27T19:39:24.384Z,36.23
2023-02-27T19:42:26.093Z,38.10
2023-02-27T19:45:28.132Z,37.13
2023-02-27T19:48:29.818Z,38.93
2023-02-27T19:51:31.753Z,37.20
2023-02-27T19:54:33.472Z,40.00
2023-02-27T19:57:35.666Z,37.50
2023-02-27T20:00:37.272Z,33.87
2023-02-27T20:03:43.159Z,34.63
2023-02-27T20:06:46.250Z,44.33
2023-02-27T20:09:47.845Z,42.20
2023-02-27T20:12:49.521Z,37.37
2023-02-27T20:16:02.285Z,35.43
2023-02-27T20:19:04.546Z,35.37
2023-02-27T20:22:06.475Z,38.83
2023-02-27T20:25:08.302Z,35.50
2023-02-27T20:28:09.936Z,37.70
2023-02-27T20:31:12.626Z,41.20
2023-02-27T20:34:15.901Z,40.20
2023-02-27T20:37:17.938Z,32.87
2023-02-27T20:40:19.615Z,34.03
2023-02-27T20:43:21.457Z,34.93
2023-02-27T20:46:24.773Z,32.37
2023-02-27T20:49:26.422Z,40.30
2023-02-27T20:52:28.207Z,37.30
2023-02-27T20:55:30.031Z,39.90
2023-02-27T20:58:32.088Z,43.10
2023-02-27T21:01:34.100Z,40.90
2023-02-27T21:04:43.023Z,41.53
2023-02-27T21:07:45.914Z,38.40
2023-02-27T21:10:51.072Z,35.83
2023-02-27T21:13:56.874Z,36.30
2023-02-27T21:16:58.500Z,37.47
2023-02-27T21:20:00.207Z,42.27
2023-02-27T21:23:01.820Z,42.27
2023-02-27T21:26:04.468Z,46.93
2023-02-27T21:29:13.493Z,48.20
2023-02-27T21:32:15.142Z,44.97
2023-02-27T21:35:16.837Z,39.57
2023-02-27T21:38:18.736Z,41.23
2023-02-27T21:41:20.308Z,40.83
2023-02-27T21:44:25.164Z,41.07
2023-02-27T21:47:28.486Z,42.43
2023-02-27T21:50:30.291Z,39.60
2023-02-27T21:53:32.070Z,37.63
2023-02-27T21:56:33.788Z,34.27
2023-02-27T21:59:35.474Z,35.17
2023-02-27T22:02:39.010Z,36.40
2023-02-27T22:05:41.607Z,34.03
2023-02-27T22:08:43.207Z,31.63
2023-02-27T22:11:44.901Z,33.43
2023-02-27T22:14:47.028Z,35.70
2023-02-27T22:17:50.570Z,33.07
2023-02-27T22:20:52.252Z,33.90
2023-02-27T22:23:55.230Z,34.53
2023-02-27T22:26:56.866Z,28.73
2023-02-27T22:29:58.456Z,28.63
2023-02-27T22:33:00.142Z,26.47
2023-02-27T22:36:04.580Z,29.37
2023-02-27T22:39:06.378Z,29.63
2023-02-27T22:42:08.073Z,29.57
2023-02-27T22:45:10.121Z,25.70
2023-02-27T22:48:11.739Z,26.43
2023-02-27T22:51:14.832Z,27.53
2023-02-27T22:54:17.016Z,27.10
2023-02-27T22:57:19.062Z,28.13
2023-02-27T23:00:20.831Z,28.77
2023-02-27T23:03:22.652Z,25.27
2023-02-27T23:06:26.356Z,26.17
2023-02-27T23:09:28.033Z,25.27
2023-02-27T23:12:30.141Z,28.00
2023-02-27T23:15:33.342Z,28.60
2023-02-27T23:18:34.998Z,23.47
2023-02-27T23:21:36.657Z,28.73
2023-02-27T23:24:38.860Z,27.40
2023-02-27T23:27:40.552Z,28.53
2023-02-27T23:30:42.155Z,26.13
2023-02-27T23:33:43.819Z,26.50
2023-02-27T23:36:45.520Z,26.40
2023-02-27T23:39:47.278Z,25.73
2023-02-27T23:43:08.084Z,24.37
2023-02-27T23:46:10.908Z,29.27
2023-02-27T23:49:12.740Z,23.93
2023-02-27T23:52:14.444Z,25.03
2023-02-27T23:55:16.895Z,27.57
2023-02-27T23:58:18.503Z,21.33
